McMicken Heights, Washington
Current Conditions -  °F | °C
As of 9:53 PM on Saturday 22 Nov 2014 (Local Time) from KSEA Reporting Station
Broken Clouds Broken Clouds  
Wind Chill: 39°   Ceiling: 2300
Heat Index: 45°   Visibility: 10mi
Dew Point: 41°   Wind: 12mph
Humidity: 86%   Direction: 170°S
Pressure: 30.11"   Gusts: NA
Location:  47.4488°N, 122.28°W
Report Text: KSEA 230553Z 17010KT 10SM SCT018 BKN023 07/05 A3011 RMK AO2 SLP203 T00720050 10094 20067 51021
Loading
Personal Weather Stations






























Interactive Weather Map New forecast layout! Learn more

10-Day Weather Forecast

Advertisements
Track Severe Weather on mobile